Delicias, Spain
Current Conditions -  °F | °C
As of 6:30 PM on Friday 31 Oct 2014 (Local Time) from LEZG Reporting Station
Clear Clear  
Wind Chill: 64°   Ceiling: Unl
Heat Index: 64°   Visibility: 4mi
Dew Point: 55°   Wind: 2mph
Humidity: 73%   Direction: 130°SE
Pressure: 30.21"   Gusts: NA
Location:  41.65°N, 0.91°W
Report Text: LEZG 311730Z 13002KT 7000 NSC 18/13 Q1023
Loading
Personal Weather Stations






























Interactive Weather Map
Tropical Storm Tracking
New forecast layout! Learn more

10-Day Weather Forecast

Advertisements
Track Severe Weather on mobile